AEE625 EHAM-LGAV
Flight info
| Callsign | AEE625 |
|---|---|
| Flight time | 2h 46m |
| Altitude | 35000 |
| Route | EDUPO Z739 MISGO DCT DOJOH DCT DODEN DCT NEGIX DCT DINKU M867 XERUM DCT BAVAX DCT RADIZ DCT LUMUS/N0445F370 DCT GORPA DCT ELTIB DCT PINDO DCT PIKOS UL607 XORKI |
| Aircraft | A321/M-SDE3FGHIRWY/LB1 |
Departure
| Time | 2026-05-04 18:19 |
|---|---|
| Airport | Amsterdam Airport Schiphol (EHAM) |
Arrival
| Time | 2026-05-04 21:05 |
|---|---|
| Airport | Athens Eleftherios Venizelos International Airport (LGAV) |
| Time | Latitude | Longitude | Altitude | Speed | Heading |
|---|---|---|---|---|---|
| 2026-05-04 18:04 | 52.30737 | 4.76939 | 4 ft | 0 kts | 45° |
| 2026-05-04 18:10 | 52.30731 | 4.76930 | 3 ft | 2 kts | 45° |
| 2026-05-04 18:10 | 52.30719 | 4.76910 | 3 ft | 3 kts | 45° |
| 2026-05-04 18:10 | 52.30705 | 4.76887 | 3 ft | 3 kts | 45° |
| 2026-05-04 18:11 | 52.30690 | 4.76863 | 3 ft | 3 kts | 45° |
| 2026-05-04 18:11 | 52.30678 | 4.76843 | 3 ft | 0 kts | 45° |
| 2026-05-04 18:11 | 52.30679 | 4.76844 | 3 ft | 2 kts | 45° |
| 2026-05-04 18:11 | 52.30670 | 4.76933 | 3 ft | 17 kts | 116° |
| 2026-05-04 18:12 | 52.30584 | 4.77084 | 3 ft | 19 kts | 155° |
| 2026-05-04 18:12 | 52.30490 | 4.77061 | 3 ft | 17 kts | 236° |
| 2026-05-04 18:12 | 52.30424 | 4.76887 | 3 ft | 18 kts | 238° |
| 2026-05-04 18:12 | 52.30361 | 4.76721 | 3 ft | 16 kts | 238° |
| 2026-05-04 18:13 | 52.30303 | 4.76570 | 3 ft | 15 kts | 238° |
| 2026-05-04 18:13 | 52.30248 | 4.76427 | 3 ft | 14 kts | 238° |
| 2026-05-04 18:13 | 52.30147 | 4.76163 | 3 ft | 14 kts | 238° |
| 2026-05-04 18:14 | 52.30099 | 4.76027 | 3 ft | 14 kts | 238° |
| 2026-05-04 18:14 | 52.30046 | 4.75888 | 3 ft | 15 kts | 238° |
| 2026-05-04 18:14 | 52.29991 | 4.75742 | 3 ft | 16 kts | 238° |
| 2026-05-04 18:15 | 52.29860 | 4.75399 | 3 ft | 24 kts | 245° |
| 2026-05-04 18:15 | 52.29972 | 4.74997 | 3 ft | 14 kts | 311° |
| 2026-05-04 18:15 | 52.30033 | 4.74883 | 3 ft | 12 kts | 311° |
| 2026-05-04 18:16 | 52.30086 | 4.74785 | 3 ft | 11 kts | 311° |
| 2026-05-04 18:16 | 52.30131 | 4.74701 | 3 ft | 9 kts | 311° |
| 2026-05-04 18:16 | 52.30180 | 4.74610 | 3 ft | 12 kts | 311° |
| 2026-05-04 18:17 | 52.30305 | 4.74377 | 3 ft | 12 kts | 311° |
| 2026-05-04 18:17 | 52.30356 | 4.74281 | 3 ft | 10 kts | 311° |
| 2026-05-04 18:17 | 52.30423 | 4.74101 | 3 ft | 18 kts | 272° |
| 2026-05-04 18:18 | 52.30407 | 4.73898 | 3 ft | 18 kts | 272° |
| 2026-05-04 18:18 | 52.30456 | 4.73795 | 3 ft | 11 kts | 2° |
| 2026-05-04 18:18 | 52.30528 | 4.73803 | 3 ft | 9 kts | 4° |
| 2026-05-04 18:18 | 52.30685 | 4.73819 | 3 ft | 51 kts | 3° |
| 2026-05-04 18:19 | 52.32423 | 4.73969 | 117 ft | 179 kts | 4° |
| 2026-05-04 18:19 | 52.33668 | 4.74397 | 546 ft | 182 kts | 15° |
| 2026-05-04 18:19 | 52.34910 | 4.75067 | 1077 ft | 193 kts | 18° |
| 2026-05-04 18:20 | 52.36181 | 4.75853 | 1596 ft | 197 kts | 20° |
| 2026-05-04 18:20 | 52.37393 | 4.76869 | 2074 ft | 199 kts | 32° |
| 2026-05-04 18:20 | 52.38511 | 4.78254 | 2592 ft | 204 kts | 38° |
| 2026-05-04 18:20 | 52.39569 | 4.79848 | 3110 ft | 206 kts | 42° |
| 2026-05-04 18:21 | 52.40573 | 4.81509 | 3606 ft | 207 kts | 43° |
| 2026-05-04 18:21 | 52.41578 | 4.83225 | 4109 ft | 208 kts | 45° |
| 2026-05-04 18:21 | 52.42227 | 4.85359 | 4602 ft | 215 kts | 71° |
| 2026-05-04 18:21 | 52.42449 | 4.87819 | 5113 ft | 219 kts | 88° |
| 2026-05-04 18:22 | 52.42483 | 4.90304 | 5615 ft | 221 kts | 92° |
| 2026-05-04 18:22 | 52.42449 | 4.92827 | 6121 ft | 223 kts | 95° |
| 2026-05-04 18:22 | 52.42426 | 4.95392 | 6626 ft | 224 kts | 94° |
| 2026-05-04 18:22 | 52.42228 | 4.97892 | 7093 ft | 222 kts | 112° |
| 2026-05-04 18:23 | 52.41378 | 4.99973 | 7624 ft | 218 kts | 137° |
| 2026-05-04 18:23 | 52.40236 | 5.01602 | 8035 ft | 220 kts | 148° |
| 2026-05-04 18:23 | 52.38981 | 5.03068 | 8542 ft | 220 kts | 151° |
| 2026-05-04 18:23 | 52.37715 | 5.04454 | 9036 ft | 224 kts | 151° |
| 2026-05-04 18:24 | 52.36392 | 5.05902 | 9545 ft | 228 kts | 151° |
| 2026-05-04 18:24 | 52.35079 | 5.07386 | 10060 ft | 232 kts | 148° |
| 2026-05-04 18:24 | 52.33830 | 5.09092 | 10562 ft | 236 kts | 143° |
| 2026-05-04 18:24 | 52.32643 | 5.10954 | 11062 ft | 238 kts | 140° |
| 2026-05-04 18:25 | 52.31485 | 5.12914 | 11564 ft | 241 kts | 139° |
| 2026-05-04 18:25 | 52.30341 | 5.14930 | 12065 ft | 243 kts | 138° |
| 2026-05-04 18:25 | 52.29210 | 5.16963 | 12525 ft | 250 kts | 137° |
| 2026-05-04 18:25 | 52.27995 | 5.19153 | 12954 ft | 269 kts | 137° |
| 2026-05-04 18:26 | 52.26686 | 5.21520 | 13381 ft | 290 kts | 136° |
| 2026-05-04 18:26 | 52.25345 | 5.24112 | 13801 ft | 311 kts | 134° |
| 2026-05-04 18:26 | 52.23952 | 5.26999 | 14230 ft | 333 kts | 133° |
| 2026-05-04 18:26 | 52.22527 | 5.30081 | 14640 ft | 351 kts | 131° |
| 2026-05-04 18:27 | 52.21061 | 5.33346 | 15048 ft | 360 kts | 131° |
| 2026-05-04 18:27 | 52.19583 | 5.36702 | 15453 ft | 365 kts | 131° |
| 2026-05-04 18:27 | 52.18106 | 5.40090 | 15855 ft | 370 kts | 131° |
| 2026-05-04 18:27 | 52.16614 | 5.43531 | 16257 ft | 374 kts | 131° |
| 2026-05-04 18:28 | 52.15110 | 5.47001 | 16658 ft | 377 kts | 131° |
| 2026-05-04 18:28 | 52.13592 | 5.50499 | 17059 ft | 380 kts | 131° |
| 2026-05-04 18:28 | 52.12061 | 5.54023 | 17460 ft | 383 kts | 131° |
| 2026-05-04 18:28 | 52.10514 | 5.57573 | 17861 ft | 387 kts | 131° |
| 2026-05-04 18:29 | 52.08953 | 5.61147 | 18261 ft | 390 kts | 132° |
| 2026-05-04 18:29 | 52.07346 | 5.64717 | 18664 ft | 391 kts | 134° |
| 2026-05-04 18:29 | 52.05672 | 5.68217 | 19066 ft | 393 kts | 135° |
| 2026-05-04 18:29 | 52.03941 | 5.71668 | 19468 ft | 395 kts | 137° |
| 2026-05-04 18:30 | 52.00402 | 5.78395 | 20229 ft | 399 kts | 139° |
| 2026-05-04 18:30 | 51.98566 | 5.81748 | 20604 ft | 401 kts | 139° |
| 2026-05-04 18:30 | 51.96693 | 5.85107 | 20980 ft | 403 kts | 140° |
| 2026-05-04 18:31 | 51.94795 | 5.88479 | 21356 ft | 405 kts | 140° |
| 2026-05-04 18:31 | 51.92883 | 5.91859 | 21733 ft | 408 kts | 140° |
| 2026-05-04 18:31 | 51.90957 | 5.95253 | 22109 ft | 411 kts | 140° |
| 2026-05-04 18:31 | 51.89019 | 5.98666 | 22485 ft | 413 kts | 140° |
| 2026-05-04 18:32 | 51.87087 | 6.02064 | 22858 ft | 415 kts | 140° |
| 2026-05-04 18:32 | 51.85104 | 6.05553 | 23238 ft | 418 kts | 140° |
| 2026-05-04 18:32 | 51.83132 | 6.09018 | 23612 ft | 421 kts | 140° |
| 2026-05-04 18:32 | 51.81163 | 6.12475 | 23988 ft | 423 kts | 140° |
| 2026-05-04 18:33 | 51.79172 | 6.15972 | 24363 ft | 425 kts | 140° |
| 2026-05-04 18:33 | 51.77165 | 6.19494 | 24739 ft | 426 kts | 140° |
| 2026-05-04 18:33 | 51.75146 | 6.23035 | 25116 ft | 428 kts | 140° |
| 2026-05-04 18:33 | 51.73120 | 6.26583 | 25492 ft | 431 kts | 139° |
| 2026-05-04 18:34 | 51.71092 | 6.30131 | 25867 ft | 433 kts | 139° |
| 2026-05-04 18:34 | 51.69046 | 6.33705 | 26243 ft | 435 kts | 139° |
| 2026-05-04 18:34 | 51.66982 | 6.37306 | 26619 ft | 438 kts | 139° |
| 2026-05-04 18:34 | 51.64963 | 6.40824 | 26986 ft | 440 kts | 139° |
| 2026-05-04 18:35 | 51.62809 | 6.44574 | 27374 ft | 443 kts | 139° |
| 2026-05-04 18:35 | 51.60716 | 6.48212 | 27733 ft | 446 kts | 139° |
| 2026-05-04 18:35 | 51.58595 | 6.51892 | 28012 ft | 450 kts | 139° |
| 2026-05-04 18:35 | 51.56465 | 6.55582 | 28267 ft | 453 kts | 139° |
| 2026-05-04 18:36 | 51.54319 | 6.59297 | 28519 ft | 455 kts | 139° |
| 2026-05-04 18:36 | 51.52168 | 6.63018 | 28770 ft | 456 kts | 139° |
| 2026-05-04 18:36 | 51.49999 | 6.66765 | 29021 ft | 458 kts | 138° |
| 2026-05-04 18:36 | 51.47832 | 6.70502 | 29271 ft | 459 kts | 138° |
| 2026-05-04 18:37 | 51.45655 | 6.74251 | 29521 ft | 461 kts | 138° |
| 2026-05-04 18:37 | 51.43464 | 6.78019 | 29772 ft | 463 kts | 138° |
| 2026-05-04 18:37 | 51.41271 | 6.81784 | 30022 ft | 464 kts | 138° |
| 2026-05-04 18:37 | 51.39063 | 6.85571 | 30277 ft | 465 kts | 139° |
| 2026-05-04 18:38 | 51.36856 | 6.89351 | 30529 ft | 464 kts | 139° |
| 2026-05-04 18:38 | 51.34654 | 6.93119 | 30778 ft | 463 kts | 138° |
| 2026-05-04 18:38 | 51.32461 | 6.96864 | 31027 ft | 463 kts | 138° |
| 2026-05-04 18:38 | 51.30259 | 7.00620 | 31277 ft | 463 kts | 138° |
| 2026-05-04 18:39 | 51.28054 | 7.04371 | 31526 ft | 464 kts | 138° |
| 2026-05-04 18:39 | 51.25844 | 7.08124 | 31775 ft | 466 kts | 138° |
| 2026-05-04 18:39 | 51.23618 | 7.11895 | 32025 ft | 468 kts | 138° |
| 2026-05-04 18:39 | 51.21356 | 7.15723 | 32279 ft | 470 kts | 138° |
| 2026-05-04 18:40 | 51.19107 | 7.19522 | 32530 ft | 472 kts | 137° |
| 2026-05-04 18:40 | 51.16877 | 7.23284 | 32777 ft | 474 kts | 137° |
| 2026-05-04 18:40 | 51.14574 | 7.27163 | 33031 ft | 476 kts | 137° |
| 2026-05-04 18:40 | 51.12300 | 7.30987 | 33280 ft | 479 kts | 137° |
| 2026-05-04 18:41 | 51.10006 | 7.34839 | 33530 ft | 481 kts | 137° |
| 2026-05-04 18:41 | 51.07699 | 7.38708 | 33781 ft | 483 kts | 137° |
| 2026-05-04 18:41 | 51.05404 | 7.42550 | 34029 ft | 485 kts | 137° |
| 2026-05-04 18:41 | 51.03046 | 7.46494 | 34283 ft | 487 kts | 137° |
| 2026-05-04 18:42 | 51.00717 | 7.50384 | 34532 ft | 486 kts | 136° |
| 2026-05-04 18:42 | 50.98415 | 7.54225 | 34761 ft | 484 kts | 136° |
| 2026-05-04 18:42 | 50.96094 | 7.58093 | 34904 ft | 482 kts | 136° |
| 2026-05-04 18:43 | 50.91478 | 7.65768 | 34990 ft | 479 kts | 136° |
| 2026-05-04 18:43 | 50.86887 | 7.73376 | 34991 ft | 476 kts | 136° |
| 2026-05-04 18:44 | 50.82334 | 7.80894 | 34991 ft | 475 kts | 136° |
| 2026-05-04 18:44 | 50.77757 | 7.88425 | 34992 ft | 474 kts | 136° |
| 2026-05-04 18:45 | 50.73190 | 7.95917 | 34992 ft | 474 kts | 136° |
| 2026-05-04 18:45 | 50.68617 | 8.03397 | 34993 ft | 474 kts | 136° |
| 2026-05-04 18:46 | 50.64031 | 8.10874 | 34993 ft | 473 kts | 136° |
| 2026-05-04 18:46 | 50.59445 | 8.18328 | 34993 ft | 473 kts | 137° |
| 2026-05-04 18:47 | 50.54858 | 8.25764 | 34993 ft | 473 kts | 137° |
| 2026-05-04 18:47 | 50.50275 | 8.33170 | 34993 ft | 473 kts | 137° |
| 2026-05-04 18:48 | 50.45690 | 8.40557 | 34993 ft | 473 kts | 137° |
| 2026-05-04 18:48 | 50.41102 | 8.47929 | 34993 ft | 473 kts | 137° |
| 2026-05-04 18:49 | 50.36543 | 8.55364 | 34993 ft | 474 kts | 136° |
| 2026-05-04 18:49 | 50.32023 | 8.62875 | 34993 ft | 474 kts | 136° |
| 2026-05-04 18:50 | 50.27562 | 8.70324 | 34993 ft | 474 kts | 136° |
| 2026-05-04 18:50 | 50.23063 | 8.77834 | 34993 ft | 474 kts | 136° |
| 2026-05-04 18:51 | 50.18561 | 8.85332 | 34993 ft | 474 kts | 136° |
| 2026-05-04 18:51 | 50.14046 | 8.92828 | 34993 ft | 474 kts | 136° |
| 2026-05-04 18:52 | 50.09603 | 9.00181 | 34993 ft | 474 kts | 136° |
| 2026-05-04 18:52 | 50.05058 | 9.07678 | 34993 ft | 473 kts | 136° |
| 2026-05-04 18:53 | 50.00559 | 9.15075 | 34993 ft | 473 kts | 136° |
| 2026-05-04 18:53 | 49.96002 | 9.22544 | 34993 ft | 473 kts | 136° |
| 2026-05-04 18:54 | 49.91523 | 9.29863 | 34993 ft | 473 kts | 136° |
| 2026-05-04 18:54 | 49.86991 | 9.37246 | 34993 ft | 473 kts | 136° |
| 2026-05-04 18:55 | 49.82452 | 9.44620 | 34993 ft | 474 kts | 136° |
| 2026-05-04 18:55 | 49.75623 | 9.55672 | 34993 ft | 474 kts | 136° |
| 2026-05-04 18:56 | 49.71067 | 9.63019 | 34993 ft | 474 kts | 136° |
| 2026-05-04 18:56 | 49.66509 | 9.70347 | 34993 ft | 473 kts | 136° |
| 2026-05-04 18:57 | 49.61954 | 9.77651 | 34993 ft | 473 kts | 136° |
| 2026-05-04 18:57 | 49.57391 | 9.84945 | 34993 ft | 473 kts | 136° |
| 2026-05-04 18:58 | 49.52796 | 9.92271 | 34993 ft | 473 kts | 136° |
| 2026-05-04 18:58 | 49.48309 | 9.99402 | 34993 ft | 473 kts | 136° |
| 2026-05-04 18:59 | 49.43669 | 10.06757 | 34993 ft | 473 kts | 136° |
| 2026-05-04 18:59 | 49.39080 | 10.14007 | 34993 ft | 473 kts | 136° |
| 2026-05-04 19:00 | 49.35256 | 10.20034 | 34993 ft | 474 kts | 136° |
| 2026-05-04 19:00 | 49.30641 | 10.27289 | 34993 ft | 475 kts | 136° |
| 2026-05-04 19:01 | 49.26018 | 10.34504 | 34992 ft | 475 kts | 139° |
| 2026-05-04 19:01 | 49.21118 | 10.40589 | 34994 ft | 473 kts | 147° |
| 2026-05-04 19:02 | 49.15609 | 10.46097 | 34993 ft | 472 kts | 151° |
| 2026-05-04 19:02 | 49.09997 | 10.51197 | 34993 ft | 472 kts | 152° |
| 2026-05-04 19:03 | 49.04314 | 10.56200 | 34993 ft | 471 kts | 152° |
| 2026-05-04 19:03 | 48.98630 | 10.61186 | 34992 ft | 470 kts | 152° |
| 2026-05-04 19:04 | 48.92969 | 10.66182 | 34992 ft | 469 kts | 152° |
| 2026-05-04 19:04 | 48.87333 | 10.71191 | 34993 ft | 469 kts | 152° |
| 2026-05-04 19:05 | 48.81864 | 10.76493 | 34991 ft | 471 kts | 144° |
| 2026-05-04 19:05 | 48.77002 | 10.83151 | 34991 ft | 473 kts | 137° |
| 2026-05-04 19:06 | 48.72472 | 10.90441 | 34990 ft | 474 kts | 134° |
| 2026-05-04 19:06 | 48.68086 | 10.97894 | 34990 ft | 475 kts | 133° |
| 2026-05-04 19:07 | 48.63706 | 11.05414 | 34989 ft | 475 kts | 133° |
| 2026-05-04 19:07 | 48.59334 | 11.12880 | 34989 ft | 475 kts | 134° |
| 2026-05-04 19:08 | 48.54942 | 11.20308 | 34990 ft | 475 kts | 134° |
| 2026-05-04 19:08 | 48.50547 | 11.27671 | 34989 ft | 475 kts | 134° |
| 2026-05-04 19:09 | 48.46091 | 11.35076 | 34989 ft | 475 kts | 134° |
| 2026-05-04 19:09 | 48.41663 | 11.42389 | 34990 ft | 475 kts | 134° |
| 2026-05-04 19:10 | 48.37200 | 11.49724 | 34990 ft | 475 kts | 134° |
| 2026-05-04 19:10 | 48.32736 | 11.57028 | 34987 ft | 475 kts | 134° |
| 2026-05-04 19:11 | 48.28246 | 11.64318 | 34985 ft | 474 kts | 135° |
| 2026-05-04 19:11 | 48.23565 | 11.71307 | 34985 ft | 474 kts | 138° |
| 2026-05-04 19:12 | 48.16368 | 11.81360 | 34986 ft | 473 kts | 139° |
| 2026-05-04 19:13 | 48.11504 | 11.88001 | 34984 ft | 473 kts | 140° |
| 2026-05-04 19:13 | 48.06635 | 11.94613 | 34984 ft | 473 kts | 140° |
| 2026-05-04 19:14 | 48.01756 | 12.01225 | 34982 ft | 473 kts | 140° |
| 2026-05-04 19:14 | 47.96889 | 12.07813 | 34982 ft | 473 kts | 140° |
| 2026-05-04 19:15 | 47.92015 | 12.14403 | 34982 ft | 473 kts | 140° |
| 2026-05-04 19:15 | 47.87141 | 12.20983 | 34983 ft | 473 kts | 140° |
| 2026-05-04 19:16 | 47.82267 | 12.27549 | 34983 ft | 473 kts | 140° |
| 2026-05-04 19:16 | 47.77383 | 12.34118 | 34983 ft | 473 kts | 140° |
| 2026-05-04 19:17 | 47.72501 | 12.40665 | 34983 ft | 473 kts | 140° |
| 2026-05-04 19:17 | 47.67618 | 12.47200 | 34985 ft | 473 kts | 140° |
| 2026-05-04 19:18 | 47.62804 | 12.53855 | 34988 ft | 474 kts | 138° |
| 2026-05-04 19:18 | 47.58200 | 12.60861 | 34991 ft | 475 kts | 136° |
| 2026-05-04 19:19 | 47.53690 | 12.67990 | 34993 ft | 475 kts | 135° |
| 2026-05-04 19:19 | 47.49193 | 12.75140 | 34996 ft | 475 kts | 135° |
| 2026-05-04 19:20 | 47.44682 | 12.82311 | 34997 ft | 475 kts | 135° |
| 2026-05-04 19:20 | 47.40194 | 12.89428 | 35005 ft | 476 kts | 135° |
| 2026-05-04 19:21 | 47.35643 | 12.96622 | 35012 ft | 477 kts | 135° |
| 2026-05-04 19:21 | 47.31112 | 13.03768 | 35012 ft | 478 kts | 135° |
| 2026-05-04 19:22 | 47.26592 | 13.10873 | 35016 ft | 478 kts | 135° |
| 2026-05-04 19:22 | 47.22050 | 13.17990 | 35035 ft | 478 kts | 134° |
| 2026-05-04 19:23 | 47.17494 | 13.25111 | 35038 ft | 478 kts | 135° |
| 2026-05-04 19:23 | 47.12930 | 13.32227 | 35033 ft | 478 kts | 135° |
| 2026-05-04 19:24 | 47.08366 | 13.39319 | 35040 ft | 478 kts | 134° |
| 2026-05-04 19:24 | 47.03806 | 13.46388 | 35045 ft | 478 kts | 134° |
| 2026-05-04 19:25 | 46.99237 | 13.53453 | 35044 ft | 478 kts | 134° |
| 2026-05-04 19:25 | 46.94664 | 13.60503 | 35045 ft | 478 kts | 134° |
| 2026-05-04 19:26 | 46.90077 | 13.67556 | 35058 ft | 477 kts | 134° |
| 2026-05-04 19:26 | 46.85507 | 13.74564 | 35061 ft | 477 kts | 134° |
| 2026-05-04 19:27 | 46.80929 | 13.81569 | 35059 ft | 476 kts | 134° |
| 2026-05-04 19:27 | 46.76347 | 13.88559 | 35062 ft | 476 kts | 134° |
| 2026-05-04 19:28 | 46.71768 | 13.95525 | 35064 ft | 476 kts | 134° |
| 2026-05-04 19:28 | 46.67205 | 14.02450 | 35065 ft | 476 kts | 134° |
| 2026-05-04 19:29 | 46.62611 | 14.09403 | 35066 ft | 476 kts | 134° |
| 2026-05-04 19:29 | 46.58010 | 14.16349 | 35069 ft | 477 kts | 134° |
| 2026-05-04 19:30 | 46.53417 | 14.23264 | 35073 ft | 477 kts | 134° |
| 2026-05-04 19:30 | 46.48814 | 14.30178 | 35075 ft | 477 kts | 134° |
| 2026-05-04 19:31 | 46.44197 | 14.37093 | 35077 ft | 478 kts | 135° |
| 2026-05-04 19:31 | 46.39545 | 14.44042 | 35078 ft | 478 kts | 135° |
| 2026-05-04 19:32 | 46.34918 | 14.50938 | 35079 ft | 478 kts | 135° |
| 2026-05-04 19:32 | 46.30282 | 14.57828 | 35078 ft | 479 kts | 135° |
| 2026-05-04 19:33 | 46.25637 | 14.64714 | 35078 ft | 479 kts | 135° |
| 2026-05-04 19:33 | 46.20988 | 14.71588 | 35078 ft | 479 kts | 135° |
| 2026-05-04 19:34 | 46.16340 | 14.78443 | 35076 ft | 479 kts | 135° |
| 2026-05-04 19:34 | 46.11682 | 14.85295 | 35076 ft | 479 kts | 135° |
| 2026-05-04 19:35 | 46.07003 | 14.92160 | 35078 ft | 479 kts | 135° |
| 2026-05-04 19:35 | 46.02329 | 14.99002 | 35067 ft | 480 kts | 135° |
| 2026-05-04 19:36 | 45.97650 | 15.05839 | 35032 ft | 479 kts | 137° |
| 2026-05-04 19:36 | 45.92978 | 15.12640 | 35032 ft | 479 kts | 136° |
| 2026-05-04 19:37 | 45.88292 | 15.19441 | 35036 ft | 480 kts | 136° |
| 2026-05-04 19:37 | 45.83604 | 15.26234 | 35017 ft | 479 kts | 137° |
| 2026-05-04 19:38 | 45.78859 | 15.32973 | 35006 ft | 476 kts | 141° |
| 2026-05-04 19:38 | 45.73794 | 15.39000 | 35008 ft | 473 kts | 145° |
| 2026-05-04 19:39 | 45.68525 | 15.44620 | 35009 ft | 472 kts | 147° |
| 2026-05-04 19:39 | 45.63193 | 15.50078 | 35016 ft | 472 kts | 147° |
| 2026-05-04 19:40 | 45.57832 | 15.55490 | 35019 ft | 473 kts | 147° |
| 2026-05-04 19:40 | 45.52460 | 15.60895 | 35018 ft | 473 kts | 147° |
| 2026-05-04 19:41 | 45.47074 | 15.66311 | 35027 ft | 474 kts | 147° |
| 2026-05-04 19:41 | 45.41687 | 15.71729 | 35033 ft | 475 kts | 147° |
| 2026-05-04 19:42 | 45.36288 | 15.77160 | 35039 ft | 476 kts | 147° |
| 2026-05-04 19:42 | 45.30879 | 15.82594 | 35056 ft | 478 kts | 147° |
| 2026-05-04 19:43 | 45.25446 | 15.88047 | 35056 ft | 479 kts | 147° |
| 2026-05-04 19:43 | 45.19967 | 15.93540 | 35056 ft | 480 kts | 147° |
| 2026-05-04 19:44 | 45.14544 | 15.98961 | 35072 ft | 481 kts | 146° |
| 2026-05-04 19:44 | 45.09041 | 16.04454 | 35081 ft | 483 kts | 146° |
| 2026-05-04 19:45 | 45.03577 | 16.09899 | 35077 ft | 483 kts | 146° |
| 2026-05-04 19:45 | 44.98073 | 16.15369 | 35086 ft | 483 kts | 145° |
| 2026-05-04 19:46 | 44.92570 | 16.20821 | 35125 ft | 483 kts | 144° |
| 2026-05-04 19:46 | 44.87055 | 16.26278 | 35133 ft | 484 kts | 144° |
| 2026-05-04 19:47 | 44.81552 | 16.31712 | 35130 ft | 484 kts | 145° |
| 2026-05-04 19:47 | 44.76067 | 16.37116 | 35130 ft | 484 kts | 145° |
| 2026-05-04 19:48 | 44.70555 | 16.42534 | 35125 ft | 484 kts | 146° |
| 2026-05-04 19:48 | 44.65034 | 16.47948 | 35112 ft | 483 kts | 146° |
| 2026-05-04 19:49 | 44.59537 | 16.53328 | 35099 ft | 480 kts | 147° |
| 2026-05-04 19:49 | 44.54079 | 16.58650 | 35098 ft | 479 kts | 147° |
| 2026-05-04 19:50 | 44.48616 | 16.63963 | 35097 ft | 479 kts | 147° |
| 2026-05-04 19:50 | 44.43158 | 16.69263 | 35101 ft | 476 kts | 148° |
| 2026-05-04 19:51 | 44.37732 | 16.74519 | 35101 ft | 474 kts | 148° |
| 2026-05-04 19:51 | 44.32328 | 16.79789 | 35099 ft | 473 kts | 146° |
| 2026-05-04 19:52 | 44.27134 | 16.85397 | 35107 ft | 469 kts | 143° |
| 2026-05-04 19:52 | 44.22143 | 16.91096 | 35112 ft | 461 kts | 137° |
| 2026-05-04 19:53 | 44.18048 | 16.95874 | 35117 ft | 456 kts | 139° |
| 2026-05-04 19:53 | 44.12467 | 17.02419 | 35112 ft | 449 kts | 138° |
| 2026-05-04 19:54 | 44.07691 | 17.08034 | 35122 ft | 453 kts | 142° |
| 2026-05-04 19:54 | 44.02810 | 17.13729 | 35134 ft | 465 kts | 139° |
| 2026-05-04 19:55 | 43.98607 | 17.18608 | 35140 ft | 475 kts | 139° |
| 2026-05-04 19:55 | 43.93494 | 17.24543 | 35142 ft | 482 kts | 142° |
| 2026-05-04 19:56 | 43.88362 | 17.30493 | 35143 ft | 479 kts | 143° |
| 2026-05-04 19:56 | 43.83283 | 17.36351 | 35145 ft | 470 kts | 141° |
| 2026-05-04 19:57 | 43.78373 | 17.41992 | 35132 ft | 456 kts | 141° |
| 2026-05-04 19:57 | 43.73509 | 17.47579 | 35126 ft | 456 kts | 142° |
| 2026-05-04 19:58 | 43.68632 | 17.53162 | 35124 ft | 456 kts | 143° |
| 2026-05-04 19:58 | 43.63749 | 17.58735 | 35119 ft | 456 kts | 142° |
| 2026-05-04 19:59 | 43.58795 | 17.64367 | 35125 ft | 468 kts | 140° |
| 2026-05-04 19:59 | 43.53676 | 17.70174 | 35124 ft | 478 kts | 141° |
| 2026-05-04 20:00 | 43.48513 | 17.76030 | 35124 ft | 484 kts | 141° |
| 2026-05-04 20:00 | 43.43299 | 17.81933 | 35125 ft | 485 kts | 143° |
| 2026-05-04 20:01 | 43.38135 | 17.87759 | 35113 ft | 480 kts | 139° |
| 2026-05-04 20:01 | 43.33002 | 17.93535 | 35116 ft | 480 kts | 137° |
| 2026-05-04 20:02 | 43.27920 | 17.99244 | 35114 ft | 464 kts | 139° |
| 2026-05-04 20:02 | 43.22980 | 18.04780 | 35108 ft | 456 kts | 138° |
| 2026-05-04 20:03 | 43.18056 | 18.10286 | 35127 ft | 456 kts | 138° |
| 2026-05-04 20:03 | 43.13151 | 18.15763 | 35126 ft | 455 kts | 138° |
| 2026-05-04 20:04 | 43.08214 | 18.21268 | 35120 ft | 461 kts | 138° |
| 2026-05-04 20:04 | 43.03232 | 18.26834 | 35136 ft | 461 kts | 143° |
| 2026-05-04 20:05 | 42.98227 | 18.32391 | 35146 ft | 468 kts | 142° |
| 2026-05-04 20:05 | 42.93104 | 18.38052 | 35153 ft | 479 kts | 142° |
| 2026-05-04 20:06 | 42.87891 | 18.43806 | 35154 ft | 481 kts | 144° |
| 2026-05-04 20:06 | 42.82732 | 18.49494 | 35163 ft | 473 kts | 144° |
| 2026-05-04 20:07 | 42.77681 | 18.55031 | 35167 ft | 460 kts | 139° |
| 2026-05-04 20:07 | 42.72725 | 18.60449 | 35166 ft | 455 kts | 138° |
| 2026-05-04 20:08 | 42.67793 | 18.65849 | 35167 ft | 463 kts | 139° |
| 2026-05-04 20:08 | 42.62716 | 18.71406 | 35172 ft | 473 kts | 138° |
| 2026-05-04 20:09 | 42.57554 | 18.77041 | 35172 ft | 479 kts | 138° |
| 2026-05-04 20:09 | 42.52357 | 18.82694 | 35171 ft | 478 kts | 138° |
| 2026-05-04 20:10 | 42.47166 | 18.88324 | 35170 ft | 476 kts | 138° |
| 2026-05-04 20:10 | 42.41991 | 18.93927 | 35169 ft | 476 kts | 138° |
| 2026-05-04 20:11 | 42.36807 | 18.99527 | 35172 ft | 476 kts | 138° |
| 2026-05-04 20:11 | 42.31686 | 19.05043 | 35170 ft | 469 kts | 138° |
| 2026-05-04 20:12 | 42.26614 | 19.10492 | 35169 ft | 464 kts | 138° |
| 2026-05-04 20:12 | 42.21562 | 19.15912 | 35170 ft | 463 kts | 138° |
| 2026-05-04 20:13 | 42.16525 | 19.21307 | 35170 ft | 462 kts | 138° |
| 2026-05-04 20:13 | 42.11487 | 19.26693 | 35170 ft | 461 kts | 138° |
| 2026-05-04 20:14 | 42.06575 | 19.31933 | 35170 ft | 460 kts | 138° |
| 2026-05-04 20:14 | 42.01499 | 19.37338 | 35170 ft | 459 kts | 138° |
| 2026-05-04 20:15 | 41.96648 | 19.42493 | 35170 ft | 458 kts | 139° |
| 2026-05-04 20:15 | 41.91505 | 19.47946 | 35170 ft | 458 kts | 138° |
| 2026-05-04 20:16 | 41.86509 | 19.53234 | 35170 ft | 459 kts | 138° |
| 2026-05-04 20:16 | 41.81499 | 19.58526 | 35169 ft | 462 kts | 138° |
| 2026-05-04 20:17 | 41.76412 | 19.63891 | 35170 ft | 466 kts | 138° |
| 2026-05-04 20:17 | 41.71287 | 19.69284 | 35174 ft | 468 kts | 139° |
| 2026-05-04 20:18 | 41.66248 | 19.74579 | 35171 ft | 456 kts | 142° |
| 2026-05-04 20:18 | 41.61189 | 19.79864 | 35170 ft | 466 kts | 140° |
| 2026-05-04 20:19 | 41.56029 | 19.85274 | 35176 ft | 479 kts | 145° |
| 2026-05-04 20:19 | 41.50773 | 19.90764 | 35173 ft | 478 kts | 145° |
| 2026-05-04 20:20 | 41.45565 | 19.96179 | 35175 ft | 475 kts | 145° |
| 2026-05-04 20:20 | 41.40350 | 20.01596 | 35174 ft | 474 kts | 145° |
| 2026-05-04 20:21 | 41.35112 | 20.06999 | 35173 ft | 480 kts | 140° |
| 2026-05-04 20:21 | 41.27200 | 20.15164 | 35182 ft | 470 kts | 139° |
| 2026-05-04 20:22 | 41.22084 | 20.20434 | 35186 ft | 472 kts | 139° |
| 2026-05-04 20:22 | 41.16836 | 20.25843 | 35189 ft | 480 kts | 139° |
| 2026-05-04 20:23 | 41.11533 | 20.31297 | 35189 ft | 484 kts | 139° |
| 2026-05-04 20:23 | 41.06224 | 20.36740 | 35192 ft | 485 kts | 139° |
| 2026-05-04 20:24 | 41.00885 | 20.42200 | 35194 ft | 485 kts | 139° |
| 2026-05-04 20:24 | 40.95526 | 20.47667 | 35196 ft | 485 kts | 139° |
| 2026-05-04 20:25 | 40.90194 | 20.53092 | 35195 ft | 481 kts | 139° |
| 2026-05-04 20:25 | 40.84915 | 20.58454 | 35195 ft | 481 kts | 139° |
| 2026-05-04 20:26 | 40.79621 | 20.63822 | 35198 ft | 480 kts | 139° |
| 2026-05-04 20:26 | 40.74351 | 20.69150 | 35196 ft | 471 kts | 139° |
| 2026-05-04 20:27 | 40.69199 | 20.74347 | 35194 ft | 464 kts | 139° |
| 2026-05-04 20:27 | 40.64091 | 20.79495 | 35198 ft | 460 kts | 139° |
| 2026-05-04 20:28 | 40.59014 | 20.84604 | 35188 ft | 459 kts | 139° |
| 2026-05-04 20:28 | 40.53945 | 20.89711 | 35198 ft | 456 kts | 141° |
| 2026-05-04 20:29 | 40.48997 | 20.94759 | 35189 ft | 451 kts | 137° |
| 2026-05-04 20:29 | 40.44168 | 21.00074 | 35185 ft | 454 kts | 136° |
| 2026-05-04 20:30 | 40.39350 | 21.05604 | 35189 ft | 466 kts | 142° |
| 2026-05-04 20:30 | 40.34416 | 21.11287 | 35187 ft | 477 kts | 140° |
| 2026-05-04 20:31 | 40.29391 | 21.17062 | 35186 ft | 489 kts | 139° |
| 2026-05-04 20:31 | 40.24226 | 21.23003 | 35186 ft | 493 kts | 142° |
| 2026-05-04 20:32 | 40.19133 | 21.28864 | 35177 ft | 483 kts | 142° |
| 2026-05-04 20:32 | 40.14132 | 21.34594 | 35172 ft | 472 kts | 142° |
| 2026-05-04 20:33 | 40.09259 | 21.40152 | 35166 ft | 462 kts | 142° |
| 2026-05-04 20:33 | 40.04420 | 21.45653 | 35158 ft | 463 kts | 142° |
| 2026-05-04 20:34 | 39.99527 | 21.51193 | 35165 ft | 468 kts | 142° |
| 2026-05-04 20:34 | 39.94615 | 21.56747 | 35152 ft | 466 kts | 142° |
| 2026-05-04 20:35 | 39.89705 | 21.62291 | 35170 ft | 471 kts | 142° |
| 2026-05-04 20:35 | 39.84796 | 21.67828 | 35158 ft | 463 kts | 142° |
| 2026-05-04 20:36 | 39.79909 | 21.73335 | 35162 ft | 462 kts | 142° |
| 2026-05-04 20:36 | 39.75073 | 21.78770 | 35153 ft | 458 kts | 142° |
| 2026-05-04 20:37 | 39.70237 | 21.84194 | 35164 ft | 464 kts | 142° |
| 2026-05-04 20:37 | 39.65397 | 21.89603 | 35173 ft | 472 kts | 143° |
| 2026-05-04 20:38 | 39.60393 | 21.95187 | 35171 ft | 476 kts | 143° |
| 2026-05-04 20:38 | 39.55385 | 22.00769 | 35169 ft | 477 kts | 142° |
| 2026-05-04 20:39 | 39.50352 | 22.06364 | 35159 ft | 482 kts | 141° |
| 2026-05-04 20:39 | 39.45220 | 22.12060 | 35155 ft | 489 kts | 141° |
| 2026-05-04 20:40 | 39.40046 | 22.17797 | 35162 ft | 490 kts | 141° |
| 2026-05-04 20:40 | 39.34943 | 22.23445 | 35093 ft | 491 kts | 142° |
| 2026-05-04 20:41 | 39.29701 | 22.29242 | 35020 ft | 484 kts | 142° |
| 2026-05-04 20:41 | 39.24619 | 22.34849 | 34994 ft | 478 kts | 142° |
| 2026-05-04 20:42 | 39.19610 | 22.40360 | 35001 ft | 476 kts | 142° |
| 2026-05-04 20:42 | 39.14575 | 22.45885 | 34995 ft | 475 kts | 143° |
| 2026-05-04 20:43 | 39.09552 | 22.51385 | 34900 ft | 475 kts | 143° |
| 2026-05-04 20:43 | 39.06999 | 22.54175 | 34577 ft | 477 kts | 143° |
| 2026-05-04 20:43 | 39.04530 | 22.56870 | 34129 ft | 477 kts | 143° |
| 2026-05-04 20:44 | 39.01949 | 22.59688 | 33625 ft | 476 kts | 143° |
| 2026-05-04 20:44 | 38.99436 | 22.62428 | 33128 ft | 474 kts | 143° |
| 2026-05-04 20:44 | 38.96935 | 22.65156 | 32628 ft | 470 kts | 144° |
| 2026-05-04 20:44 | 38.94453 | 22.67861 | 32128 ft | 466 kts | 144° |
| 2026-05-04 20:45 | 38.92000 | 22.70533 | 31629 ft | 461 kts | 144° |
| 2026-05-04 20:45 | 38.89568 | 22.73180 | 31128 ft | 456 kts | 144° |
| 2026-05-04 20:45 | 38.87169 | 22.75790 | 30628 ft | 450 kts | 145° |
| 2026-05-04 20:45 | 38.84798 | 22.78367 | 30128 ft | 444 kts | 145° |
| 2026-05-04 20:46 | 38.82441 | 22.80927 | 29623 ft | 438 kts | 146° |
| 2026-05-04 20:46 | 38.80128 | 22.83436 | 29121 ft | 432 kts | 146° |
| 2026-05-04 20:46 | 38.77845 | 22.85910 | 28619 ft | 427 kts | 146° |
| 2026-05-04 20:46 | 38.75595 | 22.88345 | 28119 ft | 422 kts | 147° |
| 2026-05-04 20:47 | 38.73365 | 22.90755 | 27618 ft | 417 kts | 147° |
| 2026-05-04 20:47 | 38.71160 | 22.93134 | 27118 ft | 413 kts | 147° |
| 2026-05-04 20:47 | 38.69705 | 22.94702 | 26785 ft | 411 kts | 147° |
| 2026-05-04 20:47 | 38.66815 | 22.97814 | 26119 ft | 406 kts | 148° |
| 2026-05-04 20:48 | 38.65370 | 22.99368 | 25784 ft | 404 kts | 148° |
| 2026-05-04 20:48 | 38.63239 | 23.01657 | 25286 ft | 401 kts | 148° |
| 2026-05-04 20:48 | 38.61112 | 23.03942 | 24785 ft | 398 kts | 149° |
| 2026-05-04 20:48 | 38.58993 | 23.06214 | 24283 ft | 395 kts | 149° |
| 2026-05-04 20:49 | 38.56889 | 23.08470 | 23780 ft | 392 kts | 149° |
| 2026-05-04 20:49 | 38.54828 | 23.10677 | 23284 ft | 389 kts | 149° |
| 2026-05-04 20:49 | 38.52762 | 23.12889 | 22782 ft | 384 kts | 149° |
| 2026-05-04 20:49 | 38.50793 | 23.14999 | 22294 ft | 377 kts | 149° |
| 2026-05-04 20:50 | 38.48751 | 23.17187 | 21777 ft | 370 kts | 149° |
| 2026-05-04 20:50 | 38.46800 | 23.19275 | 21275 ft | 363 kts | 148° |
| 2026-05-04 20:50 | 38.44919 | 23.21284 | 20784 ft | 357 kts | 148° |
| 2026-05-04 20:50 | 38.43026 | 23.23304 | 20282 ft | 352 kts | 148° |
| 2026-05-04 20:51 | 38.41165 | 23.25286 | 19781 ft | 347 kts | 148° |
| 2026-05-04 20:51 | 38.39328 | 23.27239 | 19281 ft | 342 kts | 148° |
| 2026-05-04 20:51 | 38.37514 | 23.29166 | 18781 ft | 338 kts | 147° |
| 2026-05-04 20:51 | 38.35692 | 23.31099 | 18273 ft | 334 kts | 147° |
| 2026-05-04 20:52 | 38.33911 | 23.32984 | 17767 ft | 334 kts | 146° |
| 2026-05-04 20:52 | 38.32127 | 23.34871 | 17268 ft | 333 kts | 146° |
| 2026-05-04 20:52 | 38.30407 | 23.36692 | 16786 ft | 333 kts | 146° |
| 2026-05-04 20:52 | 38.28762 | 23.38434 | 16323 ft | 332 kts | 146° |
| 2026-05-04 20:53 | 38.26990 | 23.40310 | 15825 ft | 331 kts | 145° |
| 2026-05-04 20:53 | 38.25229 | 23.42175 | 15327 ft | 330 kts | 145° |
| 2026-05-04 20:53 | 38.23472 | 23.44037 | 14827 ft | 328 kts | 145° |
| 2026-05-04 20:53 | 38.21723 | 23.45889 | 14328 ft | 326 kts | 145° |
| 2026-05-04 20:54 | 38.20574 | 23.47106 | 13997 ft | 324 kts | 145° |
| 2026-05-04 20:54 | 38.18952 | 23.48682 | 13538 ft | 321 kts | 149° |
| 2026-05-04 20:54 | 38.17094 | 23.50207 | 13041 ft | 318 kts | 153° |
| 2026-05-04 20:54 | 38.15273 | 23.51543 | 12564 ft | 316 kts | 155° |
| 2026-05-04 20:55 | 38.13325 | 23.52874 | 12059 ft | 314 kts | 156° |
| 2026-05-04 20:55 | 38.11391 | 23.54136 | 11560 ft | 312 kts | 157° |
| 2026-05-04 20:55 | 38.09868 | 23.55104 | 11167 ft | 311 kts | 158° |
| 2026-05-04 20:55 | 38.07868 | 23.56352 | 10650 ft | 309 kts | 158° |
| 2026-05-04 20:56 | 38.05949 | 23.57533 | 10153 ft | 308 kts | 158° |
| 2026-05-04 20:56 | 38.04025 | 23.58702 | 9661 ft | 305 kts | 151° |
| 2026-05-04 20:56 | 38.02104 | 23.59853 | 9154 ft | 302 kts | 151° |
| 2026-05-04 20:56 | 38.00208 | 23.60996 | 8651 ft | 300 kts | 150° |
| 2026-05-04 20:57 | 37.98354 | 23.62117 | 8155 ft | 298 kts | 150° |
| 2026-05-04 20:57 | 37.96470 | 23.63256 | 7650 ft | 297 kts | 150° |
| 2026-05-04 20:57 | 37.94610 | 23.64381 | 7150 ft | 297 kts | 151° |
| 2026-05-04 20:57 | 37.92752 | 23.65503 | 6651 ft | 297 kts | 151° |
| 2026-05-04 20:58 | 37.91033 | 23.66540 | 6189 ft | 297 kts | 152° |
| 2026-05-04 20:58 | 37.89176 | 23.67659 | 5691 ft | 297 kts | 152° |
| 2026-05-04 20:58 | 37.87292 | 23.68792 | 5187 ft | 298 kts | 152° |
| 2026-05-04 20:58 | 37.85419 | 23.69917 | 4687 ft | 298 kts | 153° |
| 2026-05-04 20:59 | 37.83716 | 23.70940 | 4234 ft | 299 kts | 154° |
| 2026-05-04 20:59 | 37.81722 | 23.72136 | 3705 ft | 298 kts | 155° |
| 2026-05-04 20:59 | 37.79843 | 23.73260 | 3206 ft | 298 kts | 155° |
| 2026-05-04 20:59 | 37.78018 | 23.74351 | 3052 ft | 284 kts | 155° |
| 2026-05-04 21:00 | 37.76326 | 23.75479 | 2992 ft | 268 kts | 144° |
| 2026-05-04 21:00 | 37.75201 | 23.77201 | 2989 ft | 249 kts | 114° |
| 2026-05-04 21:00 | 37.74911 | 23.79248 | 2986 ft | 229 kts | 83° |
| 2026-05-04 21:00 | 37.75480 | 23.81030 | 2985 ft | 209 kts | 48° |
| 2026-05-04 21:01 | 37.76620 | 23.81971 | 2981 ft | 193 kts | 12° |
| 2026-05-04 21:01 | 37.77950 | 23.82077 | 3024 ft | 195 kts | 358° |
| 2026-05-04 21:01 | 37.79324 | 23.82247 | 2997 ft | 201 kts | 13° |
| 2026-05-04 21:01 | 37.80555 | 23.83013 | 3013 ft | 199 kts | 30° |
| 2026-05-04 21:02 | 37.81593 | 23.83934 | 2987 ft | 186 kts | 34° |
| 2026-05-04 21:02 | 37.82586 | 23.84908 | 2989 ft | 179 kts | 36° |
| 2026-05-04 21:02 | 37.83552 | 23.85908 | 2674 ft | 184 kts | 38° |
| 2026-05-04 21:02 | 37.84528 | 23.86944 | 2541 ft | 172 kts | 37° |
| 2026-05-04 21:03 | 37.85408 | 23.87866 | 2357 ft | 164 kts | 37° |
| 2026-05-04 21:03 | 37.86288 | 23.88747 | 2060 ft | 158 kts | 36° |
| 2026-05-04 21:03 | 37.87148 | 23.89548 | 1702 ft | 150 kts | 36° |
| 2026-05-04 21:03 | 37.87974 | 23.90291 | 1364 ft | 142 kts | 35° |
| 2026-05-04 21:04 | 37.88782 | 23.91037 | 1127 ft | 143 kts | 36° |
| 2026-05-04 21:04 | 37.89598 | 23.91772 | 907 ft | 143 kts | 35° |
| 2026-05-04 21:04 | 37.90391 | 23.92499 | 808 ft | 139 kts | 36° |
| 2026-05-04 21:04 | 37.91179 | 23.93237 | 599 ft | 143 kts | 36° |
| 2026-05-04 21:05 | 37.91945 | 23.93946 | 443 ft | 138 kts | 36° |
| 2026-05-04 21:05 | 37.92698 | 23.94655 | 341 ft | 130 kts | 37° |
| 2026-05-04 21:05 | 37.93317 | 23.95248 | 322 ft | 71 kts | 41° |
| 2026-05-04 21:05 | 37.93430 | 23.95363 | 322 ft | 0 kts | 40° |